createdAt,value
2019-05-23T00:01:50.494Z,97827.05
2019-05-23T00:04:23.091Z,97829.50
2019-05-23T00:06:50.667Z,97831.14
2019-05-23T00:09:17.655Z,97826.80
2019-05-23T00:11:46.977Z,97829.00
2019-05-23T00:14:29.774Z,97836.88
2019-05-23T00:16:57.333Z,97827.64
2019-05-23T00:19:25.607Z,97829.82
2019-05-23T00:21:53.207Z,97824.66
2019-05-23T00:24:21.519Z,97827.65
2019-05-23T00:26:48.193Z,97827.38
2019-05-23T00:29:16.079Z,97823.58
2019-05-23T00:31:47.061Z,97824.39
2019-05-23T00:34:14.429Z,97827.38
2019-05-23T00:36:42.294Z,97826.56
2019-05-23T00:39:08.976Z,97824.69
2019-05-23T00:41:36.441Z,97831.21
2019-05-23T00:44:04.233Z,97824.15
2019-05-23T00:46:30.933Z,97823.33
2019-05-23T00:48:58.200Z,97830.94
2019-05-23T00:51:25.047Z,97828.49
2019-05-23T00:53:52.107Z,97829.84
2019-05-23T00:56:19.297Z,97827.13
2019-05-23T00:58:45.945Z,97829.58
2019-05-23T01:01:12.623Z,97833.10
2019-05-23T01:03:39.822Z,97833.91
2019-05-23T01:06:06.840Z,97830.38
2019-05-23T01:08:34.472Z,97828.23
2019-05-23T01:11:01.225Z,97832.84
2019-05-23T01:13:29.184Z,97831.75
2019-05-23T01:15:56.689Z,97833.92
2019-05-23T01:18:24.289Z,97830.39
2019-05-23T01:21:16.504Z,97832.28
2019-05-23T01:23:46.503Z,97837.98
2019-05-23T01:26:13.380Z,97834.98
2019-05-23T01:28:40.033Z,97835.52
2019-05-23T01:31:10.401Z,97842.05
2019-05-23T01:33:37.415Z,97839.61
2019-05-23T01:36:04.382Z,97844.20
2019-05-23T01:38:31.361Z,97840.66
2019-05-23T01:40:58.790Z,97839.56
2019-05-23T01:43:26.932Z,97847.97
2019-05-23T01:45:53.692Z,97840.09
2019-05-23T01:48:20.526Z,97843.64
2019-05-23T01:50:48.166Z,97840.64
2019-05-23T01:53:15.190Z,97846.05
2019-05-23T01:55:43.726Z,97846.86
2019-05-23T01:58:10.715Z,97850.09
2019-05-23T02:00:37.977Z,97853.88
2019-05-23T02:03:05.025Z,97847.59
2019-05-23T02:05:32.466Z,97849.48
2019-05-23T02:07:59.979Z,97853.30
2019-05-23T02:10:27.051Z,97850.84
2019-05-23T02:12:54.915Z,97857.08
2019-05-23T02:15:22.138Z,97857.34
2019-05-23T02:17:49.219Z,97854.06
2019-05-23T02:20:18.161Z,97853.78
2019-05-23T02:22:45.019Z,97849.70
2019-05-23T02:25:13.681Z,97851.59
2019-05-23T02:27:40.727Z,97852.39
2019-05-23T02:30:07.750Z,97850.73
2019-05-23T02:32:34.595Z,97860.25
2019-05-23T02:35:02.676Z,97861.05
2019-05-23T02:37:55.951Z,97859.94
2019-05-23T02:40:42.740Z,97860.73
2019-05-23T02:43:11.538Z,97858.81
2019-05-23T02:45:44.579Z,97865.85
2019-05-23T02:48:13.974Z,97858.78
2019-05-23T02:50:46.303Z,97863.37
2019-05-23T02:53:15.490Z,97861.45
2019-05-23T02:55:42.956Z,97859.84
2019-05-23T02:58:35.091Z,97863.34
2019-05-23T03:01:41.704Z,97865.50
2019-05-23T03:04:13.370Z,97858.43
2019-05-23T03:06:40.279Z,97863.03
2019-05-23T03:09:07.765Z,97865.47
2019-05-23T03:11:38.965Z,97858.39
2019-05-23T03:14:05.886Z,97859.19
2019-05-23T03:16:33.729Z,97862.20
2019-05-23T03:19:05.764Z,97856.22
2019-05-23T03:21:34.550Z,97854.59
2019-05-23T03:24:01.472Z,97854.31
2019-05-23T03:27:13.183Z,97854.31
2019-05-23T03:29:40.271Z,97857.54
2019-05-23T03:32:21.180Z,97859.97
2019-05-23T03:34:52.911Z,97854.53
2019-05-23T03:37:21.414Z,97857.22
2019-05-23T03:39:48.369Z,97857.23
2019-05-23T03:42:15.397Z,97855.87
2019-05-23T03:44:44.261Z,97856.14
2019-05-23T03:47:13.791Z,97852.91
2019-05-23T03:49:41.724Z,97852.09
2019-05-23T03:52:09.618Z,97853.16
2019-05-23T03:54:36.367Z,97848.30
2019-05-23T03:57:03.853Z,97850.73
2019-05-23T03:59:30.592Z,97847.47
2019-05-23T04:01:58.994Z,97851.28
2019-05-23T04:04:26.921Z,97848.55
2019-05-23T04:06:53.993Z,97855.84
2019-05-23T04:09:21.001Z,97853.67
2019-05-23T04:11:48.018Z,97852.83
2019-05-23T04:14:15.051Z,97855.54
2019-05-23T04:16:42.703Z,97860.39
2019-05-23T04:19:09.458Z,97853.34
2019-05-23T04:21:36.109Z,97858.74
2019-05-23T04:24:02.990Z,97863.08
2019-05-23T04:26:29.984Z,97871.20
2019-05-23T04:28:57.362Z,97865.53
2019-05-23T04:31:24.029Z,97873.40
2019-05-23T04:33:50.839Z,97870.95
2019-05-23T04:36:17.914Z,97876.36
2019-05-23T04:38:44.947Z,97878.52
2019-05-23T04:41:11.649Z,97873.89
2019-05-23T04:43:38.478Z,97879.56
2019-05-23T04:46:06.438Z,97884.42
2019-05-23T04:48:34.045Z,97885.49
2019-05-23T04:51:00.895Z,97879.27
2019-05-23T04:53:27.536Z,97881.71
2019-05-23T04:55:54.353Z,97881.73
2019-05-23T04:58:20.991Z,97883.65
2019-05-23T05:00:48.213Z,97882.04
2019-05-23T05:03:18.132Z,97888.29
2019-05-23T05:05:44.693Z,97884.25
2019-05-23T05:08:11.379Z,97886.98
2019-05-23T05:10:38.616Z,97895.39
2019-05-23T05:13:05.928Z,97893.52
2019-05-23T05:15:32.840Z,97899.21
2019-05-23T05:17:59.676Z,97903.83
2019-05-23T05:20:26.359Z,97898.43
2019-05-23T05:22:53.193Z,97900.62
2019-05-23T05:25:19.958Z,97903.37
2019-05-23T05:27:47.085Z,97908.81
2019-05-23T05:30:14.230Z,97904.23
2019-05-23T05:32:45.306Z,97903.19
2019-05-23T05:35:09.739Z,97906.45
2019-05-23T05:37:36.452Z,97914.88
2019-05-23T05:40:05.206Z,97915.17
2019-05-23T05:42:33.217Z,97919.25
2019-05-23T05:45:00.347Z,97917.90
2019-05-23T05:47:27.280Z,97914.65
2019-05-23T05:49:54.109Z,97916.56
2019-05-23T05:52:21.580Z,97922.78
2019-05-23T05:54:48.414Z,97920.34
2019-05-23T05:57:15.224Z,97921.42
2019-05-23T05:59:42.368Z,97917.36
2019-05-23T06:02:11.958Z,97918.44
2019-05-23T06:04:39.312Z,97921.69
2019-05-23T06:07:16.876Z,97920.89
2019-05-23T06:09:44.513Z,97924.67
2019-05-23T06:12:12.040Z,97917.36
2019-05-23T06:14:38.779Z,97922.81
2019-05-23T06:17:07.786Z,97923.38
2019-05-23T06:19:34.361Z,97931.00
2019-05-23T06:22:02.164Z,97929.69
2019-05-23T06:24:44.892Z,97922.67
2019-05-23T06:26:58.657Z,97923.80
2019-05-23T06:29:25.595Z,97922.77
2019-05-23T06:31:52.927Z,97921.45
2019-05-23T06:34:20.667Z,97923.66
2019-05-23T06:36:48.084Z,97927.47
2019-05-23T06:39:15.146Z,97928.06
2019-05-23T06:41:42.029Z,97927.81
2019-05-23T06:44:09.187Z,97924.55
2019-05-23T06:46:35.882Z,97919.70
2019-05-23T06:49:02.734Z,97922.98
2019-05-23T06:51:30.298Z,97921.34
2019-05-23T06:53:57.460Z,97923.54
2019-05-23T06:56:24.716Z,97925.19
2019-05-23T06:58:51.406Z,97925.19
2019-05-23T07:01:18.311Z,97923.30
2019-05-23T07:03:45.075Z,97920.83
2019-05-23T07:06:14.570Z,97922.97
2019-05-23T07:08:41.213Z,97928.66
2019-05-23T07:11:07.832Z,97927.81
2019-05-23T07:13:35.119Z,97924.73
2019-05-23T07:16:01.927Z,97919.70
2019-05-23T07:18:28.568Z,97914.92
2019-05-23T07:20:55.706Z,97918.30
2019-05-23T07:23:22.767Z,97915.15
2019-05-23T07:25:49.475Z,97908.96
2019-05-23T07:28:16.264Z,97907.16
2019-05-23T07:30:42.994Z,97906.73
2019-05-23T07:33:09.866Z,97906.81
2019-05-23T07:35:36.544Z,97907.81
2019-05-23T07:38:03.710Z,97911.69
2019-05-23T07:40:31.615Z,97904.72
2019-05-23T07:42:58.665Z,97909.97
2019-05-23T07:45:30.655Z,97900.70
2019-05-23T07:47:57.861Z,97900.76
2019-05-23T07:50:24.573Z,97905.39
2019-05-23T07:52:52.412Z,97894.34
2019-05-23T07:55:27.188Z,97900.88
2019-05-23T07:57:53.941Z,97896.57
2019-05-23T08:00:25.894Z,97902.27
2019-05-23T08:02:53.764Z,97897.36
2019-05-23T08:05:21.463Z,97893.80
2019-05-23T08:07:48.285Z,97892.53
2019-05-23T08:10:30.941Z,97896.56
2019-05-23T08:12:44.217Z,97899.86
2019-05-23T08:15:11.208Z,97899.85
2019-05-23T08:17:38.061Z,97900.61
2019-05-23T08:20:05.509Z,97892.86
2019-05-23T08:22:32.177Z,97890.69
2019-05-23T08:24:58.874Z,97889.39
2019-05-23T08:27:25.557Z,97883.18
2019-05-23T08:29:52.616Z,97876.75
2019-05-23T08:32:19.412Z,97878.14
2019-05-23T08:34:46.454Z,97879.48
2019-05-23T08:37:14.087Z,97876.47
2019-05-23T08:39:41.116Z,97877.31
2019-05-23T08:42:09.774Z,97874.64
2019-05-23T08:44:37.118Z,97875.63
2019-05-23T08:47:07.450Z,97869.77
2019-05-23T08:49:34.166Z,97870.50
2019-05-23T08:52:00.748Z,97868.22
2019-05-23T08:54:28.000Z,97867.65
2019-05-23T08:56:54.902Z,97868.55
2019-05-23T08:59:22.220Z,97871.62
2019-05-23T09:01:48.775Z,97864.61
2019-05-23T09:04:16.102Z,97862.41
2019-05-23T09:06:43.967Z,97862.45
2019-05-23T09:09:28.492Z,97854.34
2019-05-23T09:11:40.287Z,97853.38
2019-05-23T09:14:07.909Z,97854.34
2019-05-23T09:16:34.862Z,97859.70
2019-05-23T09:19:01.624Z,97871.18
2019-05-23T09:21:28.404Z,97860.52
2019-05-23T09:23:55.007Z,97859.37
2019-05-23T09:26:22.684Z,97864.98
2019-05-23T09:28:50.282Z,97863.77
2019-05-23T09:31:17.049Z,97859.73
2019-05-23T09:33:43.909Z,97861.99
2019-05-23T09:36:10.877Z,97859.22
2019-05-23T09:38:37.690Z,97852.69
2019-05-23T09:41:04.375Z,97853.69
2019-05-23T09:43:32.288Z,97855.72
2019-05-23T09:45:59.064Z,97857.31
2019-05-23T09:48:26.353Z,97848.67
2019-05-23T09:50:52.898Z,97845.88
2019-05-23T09:53:19.885Z,97842.13
2019-05-23T09:55:46.533Z,97844.37
2019-05-23T09:58:13.447Z,97840.13
2019-05-23T10:00:40.312Z,97837.08
2019-05-23T10:03:06.940Z,97836.85
2019-05-23T10:05:42.914Z,97835.27
2019-05-23T10:08:02.281Z,97824.83
2019-05-23T10:10:30.870Z,97825.19
2019-05-23T10:12:57.539Z,97822.17
2019-05-23T10:15:42.643Z,97825.13
2019-05-23T10:18:15.709Z,97821.00
2019-05-23T10:20:42.811Z,97816.84
2019-05-23T10:23:09.512Z,97820.77
2019-05-23T10:25:36.326Z,97815.55
2019-05-23T10:28:03.942Z,97814.64
2019-05-23T10:30:31.061Z,97813.52
2019-05-23T10:32:57.955Z,97809.52
2019-05-23T10:35:24.929Z,97807.85
2019-05-23T10:37:51.709Z,97809.33
2019-05-23T10:40:18.988Z,97813.95
2019-05-23T10:42:45.637Z,97805.56
2019-05-23T10:45:14.488Z,97804.89
2019-05-23T10:47:41.250Z,97798.08
2019-05-23T10:50:09.965Z,97790.23
2019-05-23T10:52:37.068Z,97792.36
2019-05-23T10:55:03.966Z,97781.99
2019-05-23T10:57:30.828Z,97777.52
2019-05-23T10:59:57.532Z,97780.64
2019-05-23T11:02:26.987Z,97780.64
2019-05-23T11:04:53.029Z,97780.43
2019-05-23T11:07:19.674Z,97774.33
2019-05-23T11:09:46.246Z,97779.67
2019-05-23T11:12:14.058Z,97779.05
2019-05-23T11:14:40.764Z,97780.28
2019-05-23T11:17:07.490Z,97772.86
2019-05-23T11:19:34.239Z,97772.78
2019-05-23T11:22:00.811Z,97772.66
2019-05-23T11:24:27.742Z,97772.53
2019-05-23T11:26:54.482Z,97773.86
2019-05-23T11:29:21.425Z,97762.02
2019-05-23T11:31:48.125Z,97760.30
2019-05-23T11:34:14.808Z,97758.23
2019-05-23T11:36:41.622Z,97757.97
2019-05-23T11:39:08.805Z,97757.05
2019-05-23T11:41:36.536Z,97758.31
2019-05-23T11:44:04.089Z,97757.95
2019-05-23T11:46:35.860Z,97750.13
2019-05-23T11:49:04.454Z,97756.10
2019-05-23T11:51:31.651Z,97761.39
2019-05-23T11:54:07.529Z,97760.02
2019-05-23T11:56:26.997Z,97749.66
2019-05-23T11:58:54.020Z,97747.91
2019-05-23T12:01:31.257Z,97740.66
2019-05-23T12:04:16.332Z,97744.27
2019-05-23T12:07:06.748Z,97743.09
2019-05-23T12:09:33.488Z,97733.23
2019-05-23T12:12:00.251Z,97729.71
2019-05-23T12:14:27.010Z,97722.16
2019-05-23T12:16:55.446Z,97721.20
2019-05-23T12:19:22.370Z,97725.88
2019-05-23T12:21:49.389Z,97723.56
2019-05-23T12:24:16.302Z,97724.71
2019-05-23T12:26:43.222Z,97716.72
2019-05-23T12:29:09.874Z,97703.73
2019-05-23T12:31:36.554Z,97703.38
2019-05-23T12:34:03.630Z,97701.55
2019-05-23T12:36:30.483Z,97695.36
2019-05-23T12:38:57.354Z,97694.91
2019-05-23T12:41:23.986Z,97691.87
2019-05-23T12:43:50.694Z,97699.23
2019-05-23T12:46:17.283Z,97693.98
2019-05-23T12:49:08.251Z,97694.48
2019-05-23T12:51:36.893Z,97684.79
2019-05-23T12:54:03.640Z,97686.16
2019-05-23T12:56:30.708Z,97688.92
2019-05-23T12:58:58.411Z,97683.05
2019-05-23T13:01:25.851Z,97685.31
2019-05-23T13:03:52.630Z,97675.98
2019-05-23T13:06:19.407Z,97677.79
2019-05-23T13:08:46.571Z,97677.63
2019-05-23T13:11:13.953Z,97674.47
2019-05-23T13:13:40.857Z,97671.25
2019-05-23T13:16:07.701Z,97671.95
2019-05-23T13:18:34.493Z,97668.02
2019-05-23T13:21:01.346Z,97665.34
2019-05-23T13:23:28.124Z,97663.81
2019-05-23T13:25:54.762Z,97665.75
2019-05-23T13:28:21.687Z,97669.70
2019-05-23T13:30:48.342Z,97668.98
2019-05-23T13:33:15.463Z,97668.42
2019-05-23T13:35:43.006Z,97664.86
2019-05-23T13:38:09.932Z,97656.60
2019-05-23T13:40:36.630Z,97661.13
2019-05-23T13:43:07.273Z,97665.34
2019-05-23T13:45:32.785Z,97669.71
2019-05-23T13:48:00.019Z,97653.73
2019-05-23T13:50:26.697Z,97650.73
2019-05-23T13:52:53.429Z,97649.12
2019-05-23T13:55:20.761Z,97652.16
2019-05-23T13:57:47.810Z,97645.78
2019-05-23T14:00:15.831Z,97640.56
2019-05-23T14:02:42.736Z,97639.56
2019-05-23T14:05:10.141Z,97636.06
2019-05-23T14:07:39.407Z,97630.14
2019-05-23T14:10:06.576Z,97628.53
2019-05-23T14:12:33.243Z,97627.78
2019-05-23T14:15:00.038Z,97620.52
2019-05-23T14:17:38.432Z,97622.72
2019-05-23T14:20:05.897Z,97614.94
2019-05-23T14:22:37.794Z,97623.19
2019-05-23T14:25:04.519Z,97618.20
2019-05-23T14:27:43.509Z,97613.00
2019-05-23T14:30:33.412Z,97622.11
2019-05-23T14:33:02.243Z,97617.17
2019-05-23T14:35:30.465Z,97618.05
2019-05-23T14:37:58.878Z,97621.25
2019-05-23T14:40:25.726Z,97614.02
2019-05-23T14:43:10.742Z,97607.70
2019-05-23T14:46:06.030Z,97606.97
2019-05-23T14:48:57.636Z,97598.78
2019-05-23T14:51:35.915Z,97590.25
2019-05-23T14:54:07.758Z,97596.04
2019-05-23T14:56:37.118Z,97596.26
2019-05-23T14:59:03.983Z,97595.87
2019-05-23T15:01:32.598Z,97595.77
2019-05-23T15:03:59.316Z,97597.56
2019-05-23T15:06:26.003Z,97590.00
2019-05-23T15:08:52.691Z,97589.14
2019-05-23T15:11:19.366Z,97580.70
2019-05-23T15:13:46.111Z,97587.42
2019-05-23T15:16:13.880Z,97582.67
2019-05-23T15:18:40.578Z,97592.66
2019-05-23T15:21:07.439Z,97587.75
2019-05-23T15:23:34.591Z,97585.62
2019-05-23T15:26:01.644Z,97590.91
2019-05-23T15:28:28.431Z,97586.25
2019-05-23T15:30:55.210Z,97581.56
2019-05-23T15:33:22.045Z,97587.17
2019-05-23T15:35:48.906Z,97579.19
2019-05-23T15:38:15.785Z,97578.31
2019-05-23T15:40:42.344Z,97579.08
2019-05-23T15:43:10.111Z,97577.13
2019-05-23T15:45:37.639Z,97570.57
2019-05-23T15:48:04.480Z,97565.16
2019-05-23T15:50:39.936Z,97567.72
2019-05-23T15:53:15.895Z,97563.05
2019-05-23T15:55:51.713Z,97561.36
2019-05-23T15:58:30.399Z,97560.09
2019-05-23T16:01:09.258Z,97557.00
2019-05-23T16:03:47.639Z,97508.36
2019-05-23T16:06:16.337Z,97555.31
2019-05-23T16:08:43.645Z,97552.33
2019-05-23T16:11:10.624Z,97552.56
2019-05-23T16:13:37.436Z,97555.09
2019-05-23T16:16:04.169Z,97550.25
2019-05-23T16:18:31.978Z,97559.25
2019-05-23T16:20:58.860Z,97546.16
2019-05-23T16:23:25.604Z,97549.16
2019-05-23T16:25:52.520Z,97554.93
2019-05-23T16:28:19.254Z,97545.95
2019-05-23T16:30:46.156Z,97545.77
2019-05-23T16:33:13.117Z,97548.19
2019-05-23T16:35:40.035Z,97542.89
2019-05-23T16:38:06.720Z,97552.12
2019-05-23T16:40:33.450Z,97543.45
2019-05-23T16:43:00.205Z,97534.94
2019-05-23T16:45:26.822Z,97542.66
2019-05-23T16:47:53.603Z,97548.52
2019-05-23T16:50:20.823Z,97543.33
2019-05-23T16:52:47.661Z,97543.56
2019-05-23T16:55:20.504Z,97542.50
2019-05-23T16:57:53.924Z,97547.09
2019-05-23T17:00:38.944Z,97546.60
2019-05-23T17:03:16.440Z,97545.94
2019-05-23T17:05:52.845Z,97541.55
2019-05-23T17:08:31.872Z,97532.67
2019-05-23T17:11:24.210Z,97528.44
2019-05-23T17:13:54.740Z,97527.73
2019-05-23T17:16:29.047Z,97537.12
2019-05-23T17:19:01.322Z,97535.38
2019-05-23T17:21:47.940Z,97534.68
2019-05-23T17:24:29.678Z,97531.42
2019-05-23T17:27:04.178Z,97534.25
2019-05-23T17:29:45.732Z,97537.68
2019-05-23T17:32:14.887Z,97546.48
2019-05-23T17:34:41.680Z,97539.89
2019-05-23T17:37:09.775Z,97543.31
2019-05-23T17:39:37.259Z,97545.69
2019-05-23T17:42:04.597Z,97541.05
2019-05-23T17:44:31.278Z,97539.05
2019-05-23T17:46:58.492Z,97538.77
2019-05-23T17:49:25.331Z,97534.83
2019-05-23T17:51:52.053Z,97527.00
2019-05-23T17:54:19.481Z,97529.70
2019-05-23T17:56:46.549Z,97529.42
2019-05-23T17:59:13.433Z,97527.78
2019-05-23T18:01:40.721Z,97528.88
2019-05-23T18:04:07.465Z,97522.75
2019-05-23T18:06:34.651Z,97529.48
2019-05-23T18:09:03.571Z,97530.59
2019-05-23T18:11:30.201Z,97529.72
2019-05-23T18:13:56.863Z,97522.31
2019-05-23T18:16:24.134Z,97529.93
2019-05-23T18:18:51.116Z,97527.56
2019-05-23T18:21:18.741Z,97530.22
2019-05-23T18:23:45.498Z,97532.17
2019-05-23T18:26:12.990Z,97534.41
2019-05-23T18:28:39.964Z,97532.95
2019-05-23T18:31:12.852Z,97533.53
2019-05-23T18:33:41.554Z,97531.72
2019-05-23T18:36:09.100Z,97530.67
2019-05-23T18:38:36.871Z,97533.66
2019-05-23T18:41:09.018Z,97544.03
2019-05-23T18:43:33.757Z,97542.33
2019-05-23T18:46:03.885Z,97545.88
2019-05-23T18:48:31.014Z,97542.88
2019-05-23T18:50:57.967Z,97546.41
2019-05-23T18:53:24.741Z,97540.91
2019-05-23T18:55:51.565Z,97544.92
2019-05-23T18:58:20.032Z,97551.48
2019-05-23T19:01:01.342Z,97552.02
2019-05-23T19:03:29.642Z,97548.92
2019-05-23T19:05:56.623Z,97556.02
2019-05-23T19:08:23.530Z,97550.69
2019-05-23T19:10:50.494Z,97555.25
2019-05-23T19:13:17.542Z,97556.59
2019-05-23T19:15:46.497Z,97559.00
2019-05-23T19:18:18.115Z,97560.58
2019-05-23T19:20:46.603Z,97563.70
2019-05-23T19:23:19.013Z,97565.27
2019-05-23T19:25:47.174Z,97568.77
2019-05-23T19:28:14.642Z,97570.82
2019-05-23T19:30:41.791Z,97570.95
2019-05-23T19:33:08.705Z,97565.91
2019-05-23T19:35:36.663Z,97565.81
2019-05-23T19:38:04.264Z,97568.68
2019-05-23T19:40:31.399Z,97570.17
2019-05-23T19:42:58.142Z,97563.82
2019-05-23T19:45:25.195Z,97563.47
2019-05-23T19:47:52.257Z,97560.36
2019-05-23T19:50:19.089Z,97569.05
2019-05-23T19:52:46.417Z,97571.91
2019-05-23T19:55:13.206Z,97571.74
2019-05-23T19:57:40.306Z,97575.41
2019-05-23T20:00:09.324Z,97568.37
2019-05-23T20:02:49.317Z,97567.92
2019-05-23T20:05:36.115Z,97568.84
2019-05-23T20:08:03.403Z,97573.31
2019-05-23T20:10:30.231Z,97573.47
2019-05-23T20:12:57.278Z,97570.59
2019-05-23T20:18:12.993Z,97566.15
2019-05-23T20:20:40.250Z,97563.27
2019-05-23T20:23:07.647Z,97564.20
2019-05-23T20:25:35.770Z,97560.77
2019-05-23T20:28:03.358Z,97566.80
2019-05-23T20:30:50.597Z,97567.45
2019-05-23T20:33:17.978Z,97568.61
2019-05-23T20:35:44.756Z,97566.23
2019-05-23T20:38:11.644Z,97570.97
2019-05-23T20:40:38.448Z,97568.34
2019-05-23T20:43:05.312Z,97560.23
2019-05-23T20:45:32.112Z,97566.86
2019-05-23T20:47:58.954Z,97568.83
2019-05-23T20:50:25.804Z,97559.06
2019-05-23T20:52:52.477Z,97559.16
2019-05-23T20:55:19.220Z,97560.09
2019-05-23T20:57:45.891Z,97556.39
2019-05-23T21:00:14.675Z,97560.02
2019-05-23T21:02:41.874Z,97551.11
2019-05-23T21:05:09.660Z,97551.45
2019-05-23T21:07:36.369Z,97551.58
2019-05-23T21:10:03.427Z,97552.77
2019-05-23T21:12:30.700Z,97553.92
2019-05-23T21:14:57.377Z,97552.62
2019-05-23T21:17:25.490Z,97546.69
2019-05-23T21:19:52.203Z,97549.23
2019-05-23T21:22:18.959Z,97549.62
2019-05-23T21:24:45.814Z,97552.13
2019-05-23T21:27:12.351Z,97551.91
2019-05-23T21:29:39.102Z,97550.63
2019-05-23T21:32:06.284Z,97552.34
2019-05-23T21:34:33.011Z,97553.00
2019-05-23T21:37:00.278Z,97556.02
2019-05-23T21:39:26.942Z,97557.72
2019-05-23T21:41:53.465Z,97554.81
2019-05-23T21:44:20.297Z,97560.05
2019-05-23T21:46:46.899Z,97560.42
2019-05-23T21:49:13.770Z,97558.34
2019-05-23T21:51:40.467Z,97563.32
2019-05-23T21:54:07.329Z,97562.84
2019-05-23T21:56:33.993Z,97562.62
2019-05-23T21:59:00.573Z,97568.40
2019-05-23T22:01:43.022Z,97566.26
2019-05-23T22:04:41.089Z,97564.95
2019-05-23T22:07:08.605Z,97568.53
2019-05-23T22:09:35.340Z,97569.67
2019-05-23T22:12:03.110Z,97570.25
2019-05-23T22:14:29.752Z,97567.01
2019-05-23T22:16:56.511Z,97565.16
2019-05-23T22:19:23.584Z,97567.10
2019-05-23T22:21:50.231Z,97564.95
2019-05-23T22:24:17.844Z,97564.44
2019-05-23T22:26:45.788Z,97555.80
2019-05-23T22:29:12.627Z,97558.56
2019-05-23T22:31:39.532Z,97553.44
2019-05-23T22:34:12.494Z,97549.34
2019-05-23T22:36:39.229Z,97549.38
2019-05-23T22:39:06.095Z,97546.97
2019-05-23T22:41:32.805Z,97544.83
2019-05-23T22:43:59.399Z,97547.09
2019-05-23T22:46:26.629Z,97540.34
2019-05-23T22:48:53.389Z,97543.64
2019-05-23T22:51:19.984Z,97545.30
2019-05-23T22:53:46.554Z,97543.18
2019-05-23T22:56:13.472Z,97544.56
2019-05-23T22:58:40.092Z,97547.58
2019-05-23T23:01:06.925Z,97543.52
2019-05-23T23:03:33.442Z,97546.53
2019-05-23T23:06:00.468Z,97540.02
2019-05-23T23:08:27.509Z,97533.00
2019-05-23T23:10:54.142Z,97530.59
2019-05-23T23:13:37.420Z,97528.45
2019-05-23T23:15:49.918Z,97537.45
2019-05-23T23:18:16.619Z,97533.95
2019-05-23T23:20:45.808Z,97538.05
2019-05-23T23:23:12.033Z,97534.28
2019-05-23T23:25:39.742Z,97528.05
2019-05-23T23:28:06.416Z,97527.84
2019-05-23T23:30:35.677Z,97527.06
2019-05-23T23:33:02.280Z,97529.26
2019-05-23T23:35:28.915Z,97531.74
2019-05-23T23:37:55.897Z,97527.68
2019-05-23T23:40:22.536Z,97532.08
2019-05-23T23:42:49.206Z,97531.02
2019-05-23T23:45:34.428Z,97529.14
2019-05-23T23:48:19.658Z,97532.45
2019-05-23T23:51:04.612Z,97524.61
2019-05-23T23:53:49.656Z,97532.78
2019-05-23T23:56:34.519Z,97529.02
2019-05-23T23:59:00.877Z,97532.56
